Airfield :
LOGIN :

Register | Disclaimer

   EN    FR    IT 

 










Legend :    VFR   Marginal VFR   IFR   Intensive IFR   Very Intensive IFR
Visi :
Ceiling :
>= 8 km
>= 3000ft
5 to 8 km
1000 to 3000 ft
1500m to 5 km
500 to 1000 ft
800 to 1500m
200 to 500 ft
< 800m
< 200 ft
Symbols :   Thunderstorms  Fog  Heavy snow  Heavy precipitations  Wind > 20 kt
SIGMETs :     Misc.  Thunderstorms  Icing  Turbulence  Mountain Waves  Volcanic Ashes






- Airport Elevation : 122 ft
- IATA code : TXL


EDDT - Berlin Tegel Int.

CURRENT METAR :
  • 280620Z 20011KT 9999 -RA FEW010 OVC020 06/05 Q0993 NOSIG

EXPIRED METARs :
  • 280550Z 19010KT 9999 -RA FEW010 BKN018 06/05 Q0994 NOSIG
  • 280520Z 18009KT 9999 -RA BKN019 06/05 Q0994 TEMPO RA
  • 280450Z 18011KT 9999 -RA BKN021 06/04 Q0995 TEMPO RA
  • 280420Z 18010KT 9999 -RA BKN027 07/04 Q0995 TEMPO RA
  • 280350Z 17010KT 9999 BKN030 07/04 Q0995 TEMPO RA

TAF TAF EDDT
Valid from the 28 at 06:00 until the 29 at 06:00 UTC


280500Z 2806/2906 19012KT 9999 BKN025
BECMG 2809/2812 21015G25KT
BECMG 2812/2815 23020G35KT
TEMPO 2815/2821 4000 SHRAGS BKN015CB
PROB30
TEMPO 2818/2821 2500 SHRASN BKN007



MET'MAP, your aeronautical weather chart ! - Copyright ORBIFLY December 2007 - Disclaimer

ORBIFLY MET'MAP TEAM :

Programming & Development : Alexandra Zaïnal
Concept & original design : Baudouin d'Aumeries
Assistance for programming : Marc-Olivier Méhu
Technical & hardware support : Manuel Goepfert

Contact : metmap@orbifly.com




SOURCES & CREDITS :

   NOAA